Terminal Aerodrome Forecast
Issued by NWS

Home | Current Version | Previous Version | Text Only | Print | Product List | Glossary On
Versions: 1 2 3 4 5 6 7 8 9 10 11 12 13 14 15 16 17
000
FTUS44 KTSA 011843 AAA
TAFFYV
TAF AMD
KFYV 011843Z 0119/0218 19010KT P6SM SCT045
     FM020100 17003KT P6SM SKC
     FM020600 00000KT 5SM BR SKC
     FM021400 19005KT P6SM SKC=

USA.gov is the U.S. government's official web portal to all federal, state and local government web resources and services.